Ukkel, België

2:16 PM CEST op 05 september 2015 (GMT +0200)
Beauvechain Air Base | | Change Station
CLOSE
Current Station
Luchthaven
Location: Beauvechain,
Geometrische hoogte: 417 ft
Nabije weerstations

Hoogte 417 ft 50.76 °N, 4.77 °E | Updated 21 minutes ago

Overcast
Geheel bewolkt
57 °F
Voelt als 57 °F
N
10
Wind Variabel Wind van west

Vandaag
Hoog -- | Laag -- °F
--% Kans op neerslag
Gisteren
Hoog -- | Laag -- °F
Precip. -- inches
7:01 AM 8:19 PM
Afnemende maan, 49% visible
Druk 30.06 inches
Zicht 6.2 mijlen
Wolken Gering 2700 ft
Merendeels bewolkt 3500 ft
Geheel bewolkt 4200 ft
Dauwpunt 50 °F
Vochtigheid 77%
Neerslag 0.00 inches
Dikte sneeuw Niet beschikbaar.
UV 2 van de 12
Pollen Niet beschikbaar.
Luchtkwaliteit Niet beschikbaar.
Flu Activity Niet beschikbaar.
METAR EBBE 051155Z AUTO 27009KT 9999 FEW027/// BKN035/// OVC042/// 14/10 Q1018 BLU
Druk 30.06 inches
Zicht 6.2 mijlen
Wolken Gering 2700 ft
Merendeels bewolkt 3500 ft
Geheel bewolkt 4200 ft
Dauwpunt 50 °F
Vochtigheid 77%
Neerslag 0.00 inches
Dikte sneeuw Niet beschikbaar.
UV 2 van de 12
Pollen Niet beschikbaar.
Luchtkwaliteit Niet beschikbaar.
Flu Activity Niet beschikbaar.
METAR EBBE 051155Z AUTO 27009KT 9999 FEW027/// BKN035/// OVC042/// 14/10 Q1018 BLU

10-Day Weather Forecast

×

Almanac

Astronomie

Sep. 05, 2015 Opkomst Ondergang
Werkelijke tijd
Burgerlijke schemering
Nautische schemering
Astronomische schemering
Maan
Golflengte van het zichtbare licht
Daglengte
Tomorrow will be .
, % of the Moon is Illuminated

Extremen vandaag

Country Highs Country Lows

Community

WunderPhotos

Upload Photos

1,852,455 foto’s ge-upload!

WunderBlogs® & News

Nearby

Luchtkwaliteit

  Luchtkwaliteit LK-index Verontreinigende stof
Not available.

Dikte sneeuw

Station Depth Geometrische hoogte

Aardbevingen

Stad Distance Mag. Time & Date
Minimum magnitude displayed is 2.5.

Watertemperatuur langs de kust

Plaats Temperatuur

Stations

Nabije weerstations

Locatie station Temp. Gevoelstemperatuur Dauwpunt Vochtigheid Wind Precip. Hoogte Geactualiseerd Type